createdAt,value
2022-10-17T00:00:35.745Z,100271.00
2022-10-17T00:03:02.490Z,100260.72
2022-10-17T00:05:28.997Z,100256.63
2022-10-17T00:07:55.558Z,100251.69
2022-10-17T00:10:22.494Z,100256.56
2022-10-17T00:12:50.796Z,100264.09
2022-10-17T00:15:19.544Z,100268.00
2022-10-17T00:17:45.984Z,100273.44
2022-10-17T00:20:13.424Z,100275.28
2022-10-17T00:22:39.972Z,100279.88
2022-10-17T00:25:06.625Z,100285.47
2022-10-17T00:27:37.628Z,100286.84
2022-10-17T00:30:05.685Z,100280.06
2022-10-17T00:32:32.139Z,100281.16
2022-10-17T00:34:59.032Z,100277.78
2022-10-17T00:37:25.448Z,100282.16
2022-10-17T00:39:51.871Z,100275.13
2022-10-17T00:42:18.288Z,100284.09
2022-10-17T00:44:47.361Z,100287.00
2022-10-17T00:47:17.241Z,100282.03
2022-10-17T00:49:43.806Z,100282.19
2022-10-17T00:52:36.947Z,100281.31
2022-10-17T00:55:15.370Z,100286.66
2022-10-17T00:57:42.973Z,100284.84
2022-10-17T01:00:10.353Z,100292.25
2022-10-17T01:02:37.428Z,100290.19
2022-10-17T01:05:04.561Z,100291.16
2022-10-17T01:07:34.701Z,100291.16
2022-10-17T01:10:05.817Z,100285.97
2022-10-17T01:13:00.354Z,100291.53
2022-10-17T01:16:01.177Z,100293.34
2022-10-17T01:18:36.512Z,100285.50
2022-10-17T01:21:39.134Z,100283.78
2022-10-17T01:24:32.157Z,100281.25
2022-10-17T01:27:30.229Z,100293.72
2022-10-17T01:30:09.932Z,100286.59
2022-10-17T01:32:40.366Z,100290.22
2022-10-17T01:35:15.962Z,100293.72
2022-10-17T01:38:15.845Z,100289.13
2022-10-17T01:40:49.643Z,100288.50
2022-10-17T01:43:37.191Z,100290.91
2022-10-17T01:46:12.864Z,100285.47
2022-10-17T01:48:41.088Z,100284.13
2022-10-17T01:51:29.079Z,100271.63
2022-10-17T01:54:07.260Z,100280.31
2022-10-17T01:56:35.109Z,100275.41
2022-10-17T01:59:05.553Z,100272.69
2022-10-17T02:01:32.356Z,100272.50
2022-10-17T02:04:00.943Z,100271.22
2022-10-17T02:06:27.734Z,100266.25
2022-10-17T02:08:55.619Z,100260.78
2022-10-17T02:11:24.238Z,100254.25
2022-10-17T02:14:00.330Z,100267.69
2022-10-17T02:16:37.508Z,100272.38
2022-10-17T02:19:26.971Z,100271.53
2022-10-17T02:22:12.860Z,100260.88
2022-10-17T02:24:49.700Z,100257.25
2022-10-17T02:27:35.255Z,100254.31
2022-10-17T02:30:09.708Z,100261.63
2022-10-17T02:32:55.765Z,100263.19
2022-10-17T02:35:23.325Z,100267.56
2022-10-17T02:37:51.121Z,100267.56
2022-10-17T02:40:21.058Z,100271.63
2022-10-17T02:42:48.153Z,100277.69
2022-10-17T02:45:14.757Z,100281.19
2022-10-17T02:47:52.511Z,100281.50
2022-10-17T02:50:22.769Z,100290.22
2022-10-17T02:52:55.975Z,100286.97
2022-10-17T02:55:36.136Z,100285.53
2022-10-17T02:58:07.161Z,100286.25
2022-10-17T03:00:40.164Z,100289.19
2022-10-17T03:03:42.225Z,100290.19
2022-10-17T03:06:08.680Z,100284.53
2022-10-17T03:08:35.460Z,100291.56
2022-10-17T03:11:02.507Z,100298.34
2022-10-17T03:13:30.541Z,100308.50
2022-10-17T03:15:57.443Z,100293.03
2022-10-17T03:18:24.149Z,100294.72
2022-10-17T03:20:55.344Z,100299.22
2022-10-17T03:23:21.728Z,100299.03
2022-10-17T03:25:48.281Z,100300.00
2022-10-17T03:28:15.764Z,100298.41
2022-10-17T03:30:42.220Z,100299.78
2022-10-17T03:33:09.200Z,100299.63
2022-10-17T03:35:39.845Z,100311.69
2022-10-17T03:38:07.483Z,100304.22
2022-10-17T03:40:33.918Z,100304.88
2022-10-17T03:43:00.519Z,100311.47
2022-10-17T03:45:28.504Z,100312.13
2022-10-17T03:47:55.788Z,100302.50
2022-10-17T03:50:22.200Z,100310.34
2022-10-17T03:52:49.228Z,100319.75
2022-10-17T03:55:16.482Z,100321.69
2022-10-17T03:57:45.429Z,100322.91
2022-10-17T04:00:13.361Z,100329.44
2022-10-17T04:02:51.233Z,100330.09
2022-10-17T04:05:18.998Z,100337.66
2022-10-17T04:07:46.393Z,100339.03
2022-10-17T04:10:14.521Z,100341.22
2022-10-17T04:12:41.665Z,100348.91
2022-10-17T04:15:08.816Z,100350.38
2022-10-17T04:17:38.102Z,100344.31
2022-10-17T04:20:05.934Z,100341.19
2022-10-17T04:22:32.407Z,100349.59
2022-10-17T04:24:58.943Z,100356.13
2022-10-17T04:27:31.484Z,100360.00
2022-10-17T04:29:57.983Z,100357.75
2022-10-17T04:32:25.792Z,100360.50
2022-10-17T04:35:06.991Z,100359.69
2022-10-17T04:37:33.436Z,100353.75
2022-10-17T04:40:02.771Z,100354.84
2022-10-17T04:42:32.091Z,100358.38
2022-10-17T04:44:58.978Z,100363.81
2022-10-17T04:47:26.480Z,100359.56
2022-10-17T04:49:52.942Z,100351.09
2022-10-17T04:52:21.689Z,100356.81
2022-10-17T04:54:49.829Z,100358.63
2022-10-17T04:57:17.150Z,100361.53
2022-10-17T04:59:51.933Z,100351.25
2022-10-17T05:02:24.955Z,100352.34
2022-10-17T05:04:51.900Z,100358.06
2022-10-17T05:07:19.923Z,100359.16
2022-10-17T05:10:03.555Z,100354.31
2022-10-17T05:12:31.780Z,100352.59
2022-10-17T05:14:58.391Z,100349.09
2022-10-17T05:17:26.045Z,100344.72
2022-10-17T05:19:52.470Z,100343.97
2022-10-17T05:22:19.025Z,100345.91
2022-10-17T05:24:45.749Z,100349.66
2022-10-17T05:27:13.337Z,100361.53
2022-10-17T05:29:40.175Z,100361.78
2022-10-17T05:32:32.670Z,100366.63
2022-10-17T05:34:59.357Z,100363.59
2022-10-17T05:37:26.268Z,100376.19
2022-10-17T05:39:55.410Z,100385.13
2022-10-17T05:42:22.176Z,100392.41
2022-10-17T05:44:48.632Z,100386.22
2022-10-17T05:47:17.864Z,100404.16
2022-10-17T05:49:48.597Z,100397.13
2022-10-17T05:52:20.784Z,100393.84
2022-10-17T05:55:05.861Z,100394.81
2022-10-17T05:57:32.360Z,100397.47
2022-10-17T06:00:00.779Z,100398.31
2022-10-17T06:02:29.175Z,100393.97
2022-10-17T06:04:55.992Z,100400.25
2022-10-17T06:07:23.736Z,100381.84
2022-10-17T06:09:50.721Z,100381.13
2022-10-17T06:12:17.719Z,100378.81
2022-10-17T06:14:45.020Z,100384.25
2022-10-17T06:17:16.071Z,100388.97
2022-10-17T06:19:44.673Z,100397.91
2022-10-17T06:22:12.407Z,100403.97
2022-10-17T06:24:40.753Z,100408.09
2022-10-17T06:27:11.020Z,100407.97
2022-10-17T06:29:39.386Z,100410.53
2022-10-17T06:32:08.655Z,100412.84
2022-10-17T06:34:38.375Z,100412.97
2022-10-17T06:37:04.876Z,100413.78
2022-10-17T06:39:34.677Z,100418.28
2022-10-17T06:42:08.156Z,100418.28
2022-10-17T06:44:53.311Z,100425.19
2022-10-17T06:47:22.380Z,100436.69
2022-10-17T06:49:51.373Z,100442.00
2022-10-17T06:52:29.296Z,100447.34
2022-10-17T06:55:31.934Z,100470.47
2022-10-17T06:58:13.168Z,100459.81
2022-10-17T07:00:49.578Z,100460.91
2022-10-17T07:03:17.253Z,100467.19
2022-10-17T07:05:51.556Z,100465.47
2022-10-17T07:08:17.984Z,100474.22
2022-10-17T07:10:44.552Z,100462.59
2022-10-17T07:13:11.000Z,100465.25
2022-10-17T07:15:38.312Z,100464.31
2022-10-17T07:18:05.637Z,100465.25
2022-10-17T07:20:32.178Z,100475.78
2022-10-17T07:22:58.584Z,100475.66
2022-10-17T07:25:25.008Z,100469.38
2022-10-17T07:27:55.959Z,100461.16
2022-10-17T07:30:23.346Z,100461.25
2022-10-17T07:32:58.557Z,100466.59
2022-10-17T07:35:25.114Z,100462.00
2022-10-17T07:37:51.857Z,100465.50
2022-10-17T07:40:20.094Z,100471.69
2022-10-17T07:42:47.199Z,100477.88
2022-10-17T07:45:13.650Z,100483.06
2022-10-17T07:47:42.980Z,100493.72
2022-10-17T07:50:10.392Z,100499.06
2022-10-17T07:52:36.839Z,100498.97
2022-10-17T07:55:03.430Z,100493.38
2022-10-17T07:57:29.829Z,100496.66
2022-10-17T07:59:56.573Z,100498.13
2022-10-17T08:02:27.155Z,100504.06
2022-10-17T08:04:54.048Z,100503.69
2022-10-17T08:07:25.327Z,100514.84
2022-10-17T08:09:54.957Z,100516.22
2022-10-17T08:12:21.885Z,100509.69
2022-10-17T08:14:48.296Z,100513.72
2022-10-17T08:17:14.727Z,100519.66
2022-10-17T08:19:41.219Z,100524.63
2022-10-17T08:22:08.012Z,100511.78
2022-10-17T08:24:34.560Z,100509.75
2022-10-17T08:27:01.264Z,100496.78
2022-10-17T08:29:27.891Z,100498.00
2022-10-17T08:31:58.672Z,100507.09
2022-10-17T08:34:27.948Z,100502.94
2022-10-17T08:36:54.382Z,100505.38
2022-10-17T08:39:20.859Z,100501.38
2022-10-17T08:42:05.881Z,100497.25
2022-10-17T08:45:06.656Z,100496.63
2022-10-17T08:47:37.295Z,100490.78
2022-10-17T08:50:06.274Z,100483.13
2022-10-17T08:52:32.555Z,100488.69
2022-10-17T08:54:59.603Z,100490.16
2022-10-17T08:57:26.031Z,100493.28
2022-10-17T08:59:53.675Z,100495.41
2022-10-17T09:02:38.511Z,100491.19
2022-10-17T09:05:32.650Z,100491.41
2022-10-17T09:08:31.865Z,100487.38
2022-10-17T09:11:02.223Z,100492.06
2022-10-17T09:14:00.660Z,100493.38
2022-10-17T09:16:43.400Z,100492.16
2022-10-17T09:19:17.427Z,100499.78
2022-10-17T09:21:48.560Z,100502.78
2022-10-17T09:24:22.337Z,100509.41
2022-10-17T09:26:49.029Z,100517.06
2022-10-17T09:29:20.260Z,100513.41
2022-10-17T09:32:00.974Z,100517.38
2022-10-17T09:34:28.516Z,100519.66
2022-10-17T09:36:55.245Z,100515.03
2022-10-17T09:39:24.557Z,100515.16
2022-10-17T09:41:55.812Z,100516.28
2022-10-17T09:44:31.072Z,100515.88
2022-10-17T09:47:15.314Z,100519.84
2022-10-17T09:49:44.366Z,100518.34
2022-10-17T09:52:18.571Z,100519.50
2022-10-17T09:54:57.565Z,100518.44
2022-10-17T09:57:24.215Z,100519.84
2022-10-17T10:00:03.070Z,100514.66
2022-10-17T10:02:31.063Z,100519.00
2022-10-17T10:05:05.916Z,100524.13
2022-10-17T10:07:37.334Z,100519.50
2022-10-17T10:10:06.627Z,100529.38
2022-10-17T10:12:38.085Z,100526.75
2022-10-17T10:15:31.357Z,100528.34
2022-10-17T10:17:57.743Z,100528.50
2022-10-17T10:20:30.583Z,100540.00
2022-10-17T10:23:20.980Z,100544.94
2022-10-17T10:25:54.801Z,100544.78
2022-10-17T10:28:23.644Z,100535.47
2022-10-17T10:30:51.221Z,100535.47
2022-10-17T10:33:20.946Z,100541.00
2022-10-17T10:35:59.571Z,100537.28
2022-10-17T10:38:26.188Z,100528.13
2022-10-17T10:41:02.980Z,100523.84
2022-10-17T10:43:35.882Z,100519.84
2022-10-17T10:46:04.516Z,100508.84
2022-10-17T10:48:35.113Z,100525.25
2022-10-17T10:51:12.410Z,100515.47
2022-10-17T10:53:46.023Z,100512.44
2022-10-17T10:56:26.133Z,100515.22
2022-10-17T10:59:20.646Z,100510.81
2022-10-17T11:01:51.904Z,100522.97
2022-10-17T11:04:29.289Z,100527.47
2022-10-17T11:07:02.184Z,100529.00
2022-10-17T11:09:35.932Z,100531.50
2022-10-17T11:12:07.552Z,100537.38
2022-10-17T11:15:07.798Z,100543.13
2022-10-17T11:17:42.704Z,100534.06
2022-10-17T11:20:08.979Z,100536.84
2022-10-17T11:22:43.144Z,100537.09
2022-10-17T11:25:12.402Z,100538.22
2022-10-17T11:27:38.931Z,100543.50
2022-10-17T11:30:05.928Z,100546.13
2022-10-17T11:32:45.001Z,100542.81
2022-10-17T11:35:27.837Z,100555.50
2022-10-17T11:38:36.333Z,100551.31
2022-10-17T11:41:04.055Z,100559.94
2022-10-17T11:43:42.211Z,100561.31
2022-10-17T11:46:17.251Z,100556.47
2022-10-17T11:48:48.844Z,100564.91
2022-10-17T11:54:11.107Z,100564.00
2022-10-17T11:56:55.747Z,100560.66
2022-10-17T11:59:43.359Z,100550.44
2022-10-17T12:02:15.265Z,100550.81
2022-10-17T12:04:52.827Z,100546.53
2022-10-17T12:07:55.566Z,100549.59
2022-10-17T12:10:39.228Z,100557.56
2022-10-17T12:13:28.246Z,100552.38
2022-10-17T12:15:57.819Z,100552.59
2022-10-17T12:18:25.553Z,100559.03
2022-10-17T12:20:59.553Z,100555.00
2022-10-17T12:23:28.079Z,100554.53
2022-10-17T12:26:05.269Z,100557.59
2022-10-17T12:28:38.138Z,100555.25
2022-10-17T12:31:09.895Z,100544.78
2022-10-17T12:33:49.392Z,100544.63
2022-10-17T12:36:18.724Z,100539.03
2022-10-17T12:38:49.934Z,100537.69
2022-10-17T12:41:17.299Z,100549.66
2022-10-17T12:46:42.787Z,100549.34
2022-10-17T12:49:46.194Z,100548.00
2022-10-17T12:52:21.827Z,100546.66
2022-10-17T12:55:18.323Z,100549.53
2022-10-17T12:57:58.521Z,100550.06
2022-10-17T13:00:49.704Z,100549.94
2022-10-17T13:03:26.793Z,100551.69
2022-10-17T13:05:59.512Z,100546.47
2022-10-17T13:08:40.011Z,100544.31
2022-10-17T13:11:07.806Z,100548.19
2022-10-17T13:13:47.435Z,100549.34
2022-10-17T13:16:34.493Z,100549.69
2022-10-17T13:19:02.512Z,100550.03
2022-10-17T13:21:29.536Z,100553.78
2022-10-17T13:23:56.285Z,100553.44
2022-10-17T13:26:25.660Z,100563.72
2022-10-17T13:29:13.625Z,100564.56
2022-10-17T13:31:42.872Z,100570.50
2022-10-17T13:34:20.824Z,100577.41
2022-10-17T13:36:48.986Z,100573.69
2022-10-17T13:39:23.040Z,100583.44
2022-10-17T13:41:59.041Z,100581.91
2022-10-17T13:44:32.848Z,100580.75
2022-10-17T13:46:59.465Z,100582.59
2022-10-17T13:49:42.451Z,100586.31
2022-10-17T13:52:21.388Z,100580.75
2022-10-17T13:54:53.711Z,100577.91
2022-10-17T13:57:38.289Z,100580.09
2022-10-17T14:00:11.407Z,100582.59
2022-10-17T14:02:42.658Z,100572.16
2022-10-17T14:05:18.246Z,100581.09
2022-10-17T14:08:11.240Z,100578.22
2022-10-17T14:10:40.435Z,100576.91
2022-10-17T14:13:10.687Z,100577.72
2022-10-17T14:15:37.587Z,100587.66
2022-10-17T14:18:08.937Z,100582.44
2022-10-17T14:23:46.291Z,100586.47
2022-10-17T14:26:16.713Z,100590.66
2022-10-17T14:28:46.881Z,100586.78
2022-10-17T14:31:25.891Z,100597.50
2022-10-17T14:33:52.700Z,100586.97
2022-10-17T14:36:20.694Z,100590.81
2022-10-17T14:38:50.020Z,100592.16
2022-10-17T14:41:41.982Z,100590.75
2022-10-17T14:44:20.437Z,100594.25
2022-10-17T14:46:51.092Z,100602.13
2022-10-17T14:49:24.777Z,100597.38
2022-10-17T14:52:29.210Z,100602.91
2022-10-17T14:54:56.637Z,100607.91
2022-10-17T14:57:34.320Z,100614.75
2022-10-17T15:00:00.700Z,100613.56
2022-10-17T15:02:29.901Z,100617.41
2022-10-17T15:04:56.790Z,100619.72
2022-10-17T15:07:24.030Z,100628.94
2022-10-17T15:09:52.224Z,100626.88
2022-10-17T15:12:21.245Z,100629.00
2022-10-17T15:14:51.491Z,100635.16
2022-10-17T15:17:20.773Z,100632.91
2022-10-17T15:19:47.948Z,100630.38
2022-10-17T15:22:15.934Z,100631.53
2022-10-17T15:24:42.340Z,100638.22
2022-10-17T15:27:17.437Z,100637.13
2022-10-17T15:29:44.018Z,100638.44
2022-10-17T15:32:10.405Z,100644.97
2022-10-17T15:34:36.948Z,100633.41
2022-10-17T15:37:04.328Z,100637.91
2022-10-17T15:39:30.754Z,100636.22
2022-10-17T15:41:57.347Z,100637.06
2022-10-17T15:44:23.732Z,100638.06
2022-10-17T15:46:50.145Z,100635.53
2022-10-17T15:49:18.490Z,100633.69
2022-10-17T15:51:44.995Z,100636.53
2022-10-17T15:56:43.280Z,100631.59
2022-10-17T15:59:16.031Z,100638.59
2022-10-17T16:01:42.571Z,100637.34
2022-10-17T16:04:14.805Z,100636.78
2022-10-17T16:06:44.679Z,100639.81
2022-10-17T16:09:11.113Z,100641.94
2022-10-17T16:11:40.134Z,100647.78
2022-10-17T16:14:10.403Z,100651.75
2022-10-17T16:16:36.827Z,100655.88
2022-10-17T16:19:03.610Z,100659.84
2022-10-17T16:21:32.684Z,100654.91
2022-10-17T16:23:59.108Z,100657.19
2022-10-17T16:26:25.484Z,100651.41
2022-10-17T16:28:51.968Z,100658.34
2022-10-17T16:31:22.472Z,100658.94
2022-10-17T16:33:50.476Z,100660.09
2022-10-17T16:36:16.944Z,100663.91
2022-10-17T16:38:43.603Z,100661.69
2022-10-17T16:41:20.304Z,100662.09
2022-10-17T16:43:48.139Z,100663.56
2022-10-17T16:46:14.615Z,100665.81
2022-10-17T16:48:41.919Z,100665.13
2022-10-17T16:51:08.384Z,100678.84
2022-10-17T16:53:34.769Z,100673.88
2022-10-17T17:27:48.333Z,100709.63
2022-10-17T17:30:33.370Z,100718.63
2022-10-17T17:36:32.664Z,100717.81
2022-10-17T17:39:23.043Z,100715.84
2022-10-17T17:42:02.223Z,100718.09
2022-10-17T17:44:51.937Z,100717.94
2022-10-17T17:47:46.212Z,100714.28
2022-10-17T17:51:00.929Z,100715.00
2022-10-17T17:53:47.159Z,100721.03
2022-10-17T18:00:10.634Z,100713.59
2022-10-17T18:03:20.578Z,100712.88
2022-10-17T18:09:14.073Z,100726.97
2022-10-17T18:12:26.486Z,100736.00
2022-10-17T18:24:48.297Z,100744.47
2022-10-17T18:37:14.499Z,100734.44
2022-10-17T18:40:26.706Z,100735.44
2022-10-17T18:43:31.978Z,100752.06
2022-10-17T19:06:30.127Z,100756.88
2022-10-17T19:18:27.114Z,100758.00
2022-10-17T19:21:53.627Z,100757.16
2022-10-17T19:27:31.604Z,100743.16
2022-10-17T19:30:14.894Z,100742.88
2022-10-17T19:35:53.982Z,100750.34
2022-10-17T19:39:12.597Z,100744.84
2022-10-17T19:45:19.196Z,100738.91
2022-10-17T19:54:17.545Z,100728.88
2022-10-17T20:00:21.399Z,100735.06
2022-10-17T20:15:04.396Z,100729.31
2022-10-17T20:20:54.173Z,100719.44
2022-10-17T20:26:38.152Z,100723.66
2022-10-17T20:32:39.505Z,100734.00
2022-10-17T20:35:28.357Z,100739.34
2022-10-17T20:38:08.663Z,100735.81
2022-10-17T20:41:02.153Z,100743.00
2022-10-17T20:43:39.826Z,100739.34
2022-10-17T20:46:36.374Z,100730.44
2022-10-17T20:58:02.921Z,100739.34
2022-10-17T21:01:29.152Z,100742.88
2022-10-17T21:04:47.590Z,100746.41
2022-10-17T21:07:19.624Z,100753.34
2022-10-17T21:13:14.789Z,100741.06
2022-10-17T21:15:41.309Z,100741.16
2022-10-17T21:18:07.825Z,100747.53
2022-10-17T21:20:34.284Z,100736.81
2022-10-17T21:23:00.781Z,100741.47
2022-10-17T21:25:27.500Z,100741.72
2022-10-17T21:27:54.063Z,100744.53
2022-10-17T21:30:21.634Z,100751.88
2022-10-17T21:32:51.639Z,100756.38
2022-10-17T21:35:18.514Z,100755.53
2022-10-17T21:37:44.950Z,100760.31
2022-10-17T21:40:12.206Z,100755.94
2022-10-17T21:42:38.664Z,100756.06
2022-10-17T21:45:10.766Z,100742.69
2022-10-17T21:47:54.874Z,100744.53
2022-10-17T21:50:27.687Z,100735.19
2022-10-17T21:52:54.165Z,100746.03
2022-10-17T21:55:20.605Z,100747.88
2022-10-17T21:57:47.121Z,100749.69
2022-10-17T22:00:14.050Z,100752.38
2022-10-17T22:02:40.459Z,100742.91
2022-10-17T22:05:07.205Z,100749.25
2022-10-17T22:07:33.981Z,100749.41
2022-10-17T22:10:00.602Z,100748.66
2022-10-17T22:12:27.139Z,100748.66
2022-10-17T22:14:53.666Z,100745.28
2022-10-17T22:17:20.121Z,100741.06
2022-10-17T22:19:47.249Z,100742.88
2022-10-17T22:22:13.882Z,100741.16
2022-10-17T22:24:40.418Z,100749.09
2022-10-17T22:27:07.078Z,100742.03
2022-10-17T22:29:34.343Z,100740.19
2022-10-17T22:32:00.766Z,100737.66
2022-10-17T22:34:27.276Z,100742.19
2022-10-17T22:36:53.989Z,100736.91
2022-10-17T22:39:20.609Z,100733.13
2022-10-17T22:41:47.121Z,100743.84
2022-10-17T22:44:13.683Z,100747.09
2022-10-17T22:46:40.150Z,100738.25
2022-10-17T22:49:09.515Z,100736.81
2022-10-17T22:51:35.998Z,100736.06
2022-10-17T22:54:02.452Z,100731.69
2022-10-17T22:56:28.923Z,100735.22
2022-10-17T22:58:55.471Z,100729.97
2022-10-17T23:01:23.459Z,100731.69
2022-10-17T23:03:51.451Z,100730.13
2022-10-17T23:06:20.815Z,100721.38
2022-10-17T23:08:47.597Z,100718.81
2022-10-17T23:11:14.082Z,100721.63
2022-10-17T23:13:41.602Z,100714.84
2022-10-17T23:16:08.369Z,100721.19
2022-10-17T23:18:34.959Z,100724.00
2022-10-17T23:21:01.397Z,100714.41
2022-10-17T23:23:27.797Z,100719.03
2022-10-17T23:25:54.272Z,100708.63
2022-10-17T23:28:20.712Z,100711.53
2022-10-17T23:30:47.168Z,100718.00
2022-10-17T23:33:14.074Z,100715.16
2022-10-17T23:35:40.660Z,100718.13
2022-10-17T23:38:07.132Z,100715.69
2022-10-17T23:40:34.741Z,100721.31
2022-10-17T23:43:01.283Z,100727.78
2022-10-17T23:45:27.776Z,100724.25
2022-10-17T23:47:56.325Z,100720.59
2022-10-17T23:50:22.713Z,100726.91
2022-10-17T23:52:49.133Z,100723.41
2022-10-17T23:55:16.151Z,100722.56
2022-10-17T23:57:42.569Z,100719.88
